Time;durP1;ratioP1;P1;durP2;ratioP2;P2;SDS_P1;SDS_P2;PMS_P1;PMS_P2;Temp;Humidity;BMP_temperature;BMP_pressure;BME280_temperature;BME280_humidity;BME280_pressure;Samples;Min_cycle;Max_cycle;Signal;HPM_P1;HPM_P2
2022/06/29 00:01:46;;;;;;;2.78;1.85;;;;;;;17.04;38.66;100573.31;5032306;28;20037;-55
2022/06/29 00:04:11;;;;;;;2.92;2.00;;;;;;;17.02;38.26;100583.44;5028055;28;20064;-51
2022/06/29 00:06:37;;;;;;;4.57;2.05;;;;;;;17.06;38.41;100580.25;5013207;28;20037;-56
2022/06/29 00:09:02;;;;;;;4.05;1.67;;;;;;;17.04;38.44;100582.25;5013297;28;20454;-52
2022/06/29 00:11:28;;;;;;;5.82;1.98;;;;;;;17.10;38.20;100577.25;5026944;28;20029;-53
2022/06/29 00:13:54;;;;;;;3.30;1.73;;;;;;;17.01;38.65;100585.25;5032988;28;20044;-53
2022/06/29 00:16:19;;;;;;;5.28;2.10;;;;;;;17.00;38.71;100580.84;5032657;28;20033;-54
2022/06/29 00:18:45;;;;;;;3.67;2.05;;;;;;;16.93;38.92;100583.25;5033100;28;20029;-51
2022/06/29 00:21:10;;;;;;;4.18;2.20;;;;;;;16.82;39.31;100588.84;5032629;28;20112;-51
2022/06/29 00:23:36;;;;;;;2.78;2.00;;;;;;;16.79;39.24;100583.75;5032041;28;20098;-55
2022/06/29 00:26:01;;;;;;;3.03;2.00;;;;;;;16.81;39.43;100588.97;5032445;28;20033;-55
2022/06/29 00:28:27;;;;;;;3.97;2.05;;;;;;;16.64;39.36;100550.91;5032780;28;20025;-55
2022/06/29 00:30:53;;;;;;;5.07;2.17;;;;;;;16.69;39.65;100580.19;5032180;28;20025;-55
2022/06/29 00:33:18;;;;;;;2.28;1.90;;;;;;;16.62;39.99;100588.00;5032895;28;20033;-53
2022/06/29 00:35:44;;;;;;;4.38;2.10;;;;;;;16.64;40.06;100581.47;5032572;28;20498;-52
2022/06/29 00:38:09;;;;;;;3.38;2.08;;;;;;;16.59;40.05;100588.31;5032589;28;20488;-54
2022/06/29 00:40:35;;;;;;;4.55;2.17;;;;;;;16.59;40.24;100586.47;5033074;28;20029;-54
2022/06/29 00:43:00;;;;;;;4.45;1.73;;;;;;;16.55;40.12;100579.66;5033012;28;20135;-51
2022/06/29 00:45:26;;;;;;;3.63;2.10;;;;;;;16.52;40.39;100579.94;5032799;28;20401;-50
2022/06/29 00:47:51;;;;;;;3.75;1.77;;;;;;;16.45;40.74;100585.06;5031797;28;20041;-50
2022/06/29 00:50:18;;;;;;;2.08;1.73;;;;;;;16.48;40.58;100589.31;5032750;28;20033;-50
2022/06/29 00:52:45;;;;;;;4.07;2.20;;;;;;;16.59;40.65;100580.19;5032952;28;20030;-50
2022/06/29 00:55:20;;;;;;;4.72;2.30;;;;;;;16.56;40.52;100585.91;5032719;28;20462;-51
2022/06/29 00:57:48;;;;;;;5.20;2.10;;;;;;;16.56;40.68;100577.78;5031302;28;20037;-51
2022/06/29 01:00:14;;;;;;;4.15;1.88;;;;;;;16.54;41.03;100577.09;5032524;28;20114;-51
2022/06/29 01:02:40;;;;;;;2.88;1.92;;;;;;;16.43;40.91;100576.25;5031945;28;20443;-51
2022/06/29 01:05:06;;;;;;;3.72;2.00;;;;;;;16.58;40.86;100581.19;5032433;28;20466;-55
2022/06/29 01:07:34;;;;;;;5.38;2.20;;;;;;;16.50;41.19;100571.97;5031986;28;20056;-54
2022/06/29 01:10:00;;;;;;;7.72;2.28;;;;;;;16.43;41.46;100578.09;5032054;28;20113;-55
2022/06/29 01:12:26;;;;;;;5.95;2.10;;;;;;;16.35;41.54;100573.41;5027426;28;20053;-52
2022/06/29 01:14:53;;;;;;;5.50;2.03;;;;;;;16.26;41.88;100568.88;5027640;28;20025;-53
2022/06/29 01:17:20;;;;;;;5.15;2.30;;;;;;;16.25;42.10;100569.84;5012491;28;20076;-54
2022/06/29 01:19:46;;;;;;;4.45;2.13;;;;;;;16.24;42.19;100568.16;5012421;28;20087;-51
2022/06/29 01:22:13;;;;;;;5.82;2.75;;;;;;;16.09;42.42;100546.13;5029497;28;20042;-61
2022/06/29 01:24:40;;;;;;;4.72;2.10;;;;;;;16.18;42.17;100573.13;5031658;28;20033;-63
2022/06/29 01:27:06;;;;;;;5.45;2.50;;;;;;;16.14;42.43;100582.50;5032261;28;20086;-55
2022/06/29 01:29:32;;;;;;;5.75;2.20;;;;;;;16.11;42.79;100581.94;5031908;28;20112;-54
2022/06/29 01:31:58;;;;;;;4.35;2.03;;;;;;;16.05;43.05;100577.94;5031268;28;20473;-55
2022/06/29 01:34:25;;;;;;;7.22;2.63;;;;;;;16.12;42.58;100573.69;5031009;28;20029;-53
2022/06/29 01:36:51;;;;;;;3.97;1.85;;;;;;;16.11;42.92;100579.25;5031419;28;20036;-56
2022/06/29 01:39:16;;;;;;;3.47;2.15;;;;;;;16.04;43.04;100566.31;5031791;28;20049;-54
2022/06/29 01:41:42;;;;;;;5.32;2.28;;;;;;;16.06;43.64;100585.06;5046430;28;20122;-55
2022/06/29 01:44:08;;;;;;;4.75;2.33;;;;;;;16.02;43.98;100583.63;5031593;28;20033;-53
2022/06/29 01:46:34;;;;;;;4.00;2.13;;;;;;;16.06;42.58;100585.06;5031459;28;20046;-53
2022/06/29 01:48:59;;;;;;;3.90;2.00;;;;;;;16.11;42.73;100590.06;5031742;28;20796;-53
2022/06/29 01:51:25;;;;;;;4.13;2.13;;;;;;;16.06;43.00;100580.53;5031054;28;20155;-51
2022/06/29 01:53:50;;;;;;;5.35;2.30;;;;;;;16.07;43.36;100586.75;5031002;28;20122;-56
2022/06/29 01:56:16;;;;;;;6.10;2.35;;;;;;;16.09;43.42;100573.97;5030912;28;20040;-50
2022/06/29 01:58:41;;;;;;;4.15;2.20;;;;;;;16.18;42.88;100581.25;5030646;28;20042;-50
2022/06/29 02:01:07;;;;;;;2.60;2.30;;;;;;;16.14;43.43;100576.25;5031296;28;20119;-51
2022/06/29 02:03:33;;;;;;;4.55;2.17;;;;;;;16.18;43.33;100583.94;5030447;28;20483;-53
2022/06/29 02:05:58;;;;;;;4.13;2.28;;;;;;;16.25;43.25;100588.78;5030946;28;20582;-59
2022/06/29 02:08:24;;;;;;;4.32;1.90;;;;;;;16.21;43.61;100588.19;5030537;28;20049;-58
2022/06/29 02:10:49;;;;;;;3.53;2.03;;;;;;;16.18;43.64;100586.66;5030722;28;20044;-58
2022/06/29 02:13:15;;;;;;;4.45;2.20;;;;;;;16.04;43.80;100560.03;5030764;28;20381;-56
2022/06/29 02:15:41;;;;;;;6.63;2.67;;;;;;;16.30;43.20;100576.56;5030653;28;20037;-65
2022/06/29 02:18:06;;;;;;;2.85;2.10;;;;;;;16.36;43.23;100588.63;5030677;28;20033;-55
2022/06/29 02:20:32;;;;;;;4.57;2.53;;;;;;;16.46;42.69;100584.06;5031010;28;20412;-52
2022/06/29 02:22:57;;;;;;;5.18;2.10;;;;;;;16.43;42.54;100551.94;5030882;28;20035;-57
2022/06/29 02:25:23;;;;;;;3.20;2.00;;;;;;;16.86;41.78;100582.16;5025602;28;20034;-55
2022/06/29 02:27:48;;;;;;;7.00;2.22;;;;;;;17.09;41.76;100579.13;5015893;28;20112;-56
2022/06/29 02:30:15;;;;;;;4.43;1.92;;;;;;;17.34;40.76;100584.84;5030709;28;20394;-59
2022/06/29 02:35:26;;;;;;;4.25;2.00;;;;;;;17.85;39.55;100571.75;5025497;28;20521;-56
2022/06/29 02:37:52;;;;;;;4.30;2.40;;;;;;;18.12;38.98;100563.72;5016059;28;20033;-56
2022/06/29 02:40:17;;;;;;;3.13;1.70;;;;;;;18.29;38.52;100526.75;5030535;28;20033;-60
2022/06/29 02:42:43;;;;;;;4.53;2.47;;;;;;;18.83;38.31;100561.06;5030511;28;20068;-64
2022/06/29 02:45:08;;;;;;;7.13;2.33;;;;;;;19.12;37.17;100557.19;5031158;28;20116;-58
2022/06/29 02:47:34;;;;;;;3.30;2.20;;;;;;;19.31;36.82;100562.38;5030561;28;20114;-59
2022/06/29 02:50:00;;;;;;;6.22;2.40;;;;;;;19.44;36.52;100561.03;5034218;28;20443;-55
2022/06/29 02:52:25;;;;;;;3.78;2.20;;;;;;;19.45;36.98;100551.88;5034264;28;20033;-60
2022/06/29 02:54:51;;;;;;;7.90;2.88;;;;;;;19.33;36.78;100554.91;5034508;28;20059;-58
2022/06/29 02:57:16;;;;;;;4.03;2.40;;;;;;;19.26;37.22;100561.97;5034489;28;20065;-61
2022/06/29 02:59:41;;;;;;;3.72;2.00;;;;;;;19.37;37.10;100555.41;5034335;28;20033;-58
2022/06/29 03:02:07;;;;;;;5.15;2.78;;;;;;;19.73;36.04;100560.63;5034307;28;20040;-57
2022/06/29 03:04:34;;;;;;;4.65;2.83;;;;;;;20.17;35.52;100551.38;5034310;28;20413;-58
2022/06/29 03:07:01;;;;;;;6.25;2.30;;;;;;;20.56;34.52;100559.88;5034159;28;20048;-57
2022/06/29 03:09:26;;;;;;;6.68;2.40;;;;;;;20.96;33.67;100555.38;5033354;28;20033;-59
2022/06/29 03:11:52;;;;;;;8.20;3.08;;;;;;;21.34;33.44;100557.47;5034210;28;20501;-59
2022/06/29 03:14:18;;;;;;;3.45;2.63;;;;;;;21.72;32.31;100548.66;5034360;28;20038;-58
2022/06/29 03:16:43;;;;;;;5.63;2.70;;;;;;;21.99;31.58;100543.69;5034169;28;20117;-58
2022/06/29 03:19:09;;;;;;;7.40;2.70;;;;;;;22.28;31.67;100542.94;5033401;28;20029;-57
2022/06/29 03:21:34;;;;;;;7.40;2.53;;;;;;;22.50;31.30;100543.97;5033340;28;20037;-61
2022/06/29 03:24:03;;;;;;;6.88;2.97;;;;;;;22.77;30.45;100540.81;5034322;28;20037;-61
2022/06/29 03:26:32;;;;;;;9.40;2.58;;;;;;;23.11;30.21;100535.81;5033827;28;20421;-57
2022/06/29 03:28:58;;;;;;;3.92;2.50;;;;;;;23.41;29.47;100530.38;5033381;28;20446;-61
2022/06/29 03:31:23;;;;;;;10.38;2.72;;;;;;;23.61;28.67;100516.94;5033800;28;20033;-61
2022/06/29 03:33:49;;;;;;;8.63;2.50;;;;;;;24.14;27.84;100533.06;5034223;28;20470;-56
2022/06/29 03:36:15;;;;;;;6.78;2.80;;;;;;;24.37;27.58;100540.22;5034085;28;20082;-61
2022/06/29 03:38:40;;;;;;;4.00;2.55;;;;;;;24.62;27.10;100512.41;5033254;28;20036;-58
2022/06/29 03:41:06;;;;;;;5.45;2.25;;;;;;;25.20;26.14;100542.28;5033338;28;20829;-57
2022/06/29 03:43:32;;;;;;;6.18;2.38;;;;;;;25.45;25.67;100533.53;5033578;28;20041;-62
2022/06/29 03:45:57;;;;;;;4.13;2.50;;;;;;;25.76;24.94;100523.06;5032272;28;20056;-61
2022/06/29 03:48:23;;;;;;;6.85;2.67;;;;;;;26.23;24.55;100535.00;5033235;28;20029;-62
2022/06/29 03:50:49;;;;;;;5.28;2.55;;;;;;;26.64;24.29;100535.81;5033306;28;20096;-61
2022/06/29 03:53:15;;;;;;;8.43;2.83;;;;;;;26.90;23.96;100536.88;5033830;28;20116;-60
2022/06/29 03:55:40;;;;;;;6.28;2.80;;;;;;;27.24;23.48;100536.75;5033428;28;20116;-59
2022/06/29 03:58:06;;;;;;;5.97;2.20;;;;;;;27.67;23.09;100537.22;5033073;28;20164;-60
2022/06/29 04:00:32;;;;;;;5.63;2.70;;;;;;;28.06;22.55;100532.53;5033016;28;20033;-60
2022/06/29 04:02:58;;;;;;;7.03;2.45;;;;;;;28.47;21.75;100533.94;5033406;28;20100;-59
2022/06/29 04:05:23;;;;;;;3.88;2.40;;;;;;;28.82;21.27;100531.72;5033016;28;20038;-60
2022/06/29 04:07:49;;;;;;;8.15;2.30;;;;;;;29.31;21.08;100527.13;5032818;28;20057;-60
2022/06/29 04:10:14;;;;;;;7.28;2.55;;;;;;;29.60;19.94;100524.63;5033490;28;20106;-59
2022/06/29 04:12:40;;;;;;;6.55;2.35;;;;;;;30.00;19.85;100533.41;5032925;28;20049;-61
2022/06/29 04:15:06;;;;;;;4.85;2.33;;;;;;;30.61;19.42;100527.78;5033025;28;20022;-61
2022/06/29 04:17:32;;;;;;;8.10;2.67;;;;;;;31.33;18.72;100511.94;5031834;28;20033;-64
2022/06/29 04:19:58;;;;;;;3.50;2.50;;;;;;;31.89;18.19;100511.34;5031615;28;20034;-58
2022/06/29 04:22:24;;;;;;;4.88;2.45;;;;;;;32.17;17.24;100517.91;5032919;28;20112;-60
2022/06/29 04:24:50;;;;;;;8.40;2.65;;;;;;;32.45;16.94;100516.19;5033241;28;20096;-62
2022/06/29 04:27:16;;;;;;;6.28;2.47;;;;;;;32.90;16.70;100514.34;5032628;28;20068;-61
2022/06/29 04:29:41;;;;;;;5.85;2.08;;;;;;;33.34;15.80;100513.47;5030898;28;20064;-62
2022/06/29 04:32:07;;;;;;;3.58;2.10;;;;;;;34.07;14.94;100510.38;5033026;28;20025;-59
2022/06/29 04:34:33;;;;;;;6.10;2.30;;;;;;;34.83;14.62;100512.31;5032651;28;20358;-60
2022/06/29 04:36:58;;;;;;;6.65;2.58;;;;;;;35.76;13.65;100501.53;5031228;28;20083;-60
2022/06/29 04:39:24;;;;;;;4.80;2.40;;;;;;;36.45;13.05;100499.31;5031336;28;20029;-60
2022/06/29 04:41:52;;;;;;;3.90;2.25;;;;;;;36.47;13.32;100499.00;5032853;28;20164;-63
2022/06/29 04:44:18;;;;;;;4.82;2.42;;;;;;;37.11;13.09;100516.16;5032490;28;20350;-60
2022/06/29 04:46:43;;;;;;;3.65;2.15;;;;;;;37.21;12.42;100529.25;5047070;28;20399;-60
2022/06/29 04:49:09;;;;;;;2.85;2.20;;;;;;;37.52;12.13;100526.31;5032292;28;20266;-59
2022/06/29 04:51:35;;;;;;;3.58;2.45;;;;;;;38.22;11.71;100516.00;5031028;28;20428;-59
2022/06/29 04:54:01;;;;;;;2.55;2.05;;;;;;;39.05;10.96;100518.78;5032048;28;20434;-60
2022/06/29 04:56:30;;;;;;;4.22;1.67;;;;;;;39.66;9.92;100525.84;5031502;28;20037;-62
2022/06/29 04:58:57;;;;;;;2.00;1.70;;;;;;;40.09;9.34;100528.53;5032027;28;20397;-60
2022/06/29 05:01:24;;;;;;;2.83;1.60;;;;;;;40.68;8.77;100533.66;5032567;28;20037;-61
2022/06/29 05:03:51;;;;;;;4.30;2.10;;;;;;;40.98;8.96;100514.53;5031770;28;20128;-60
2022/06/29 05:06:17;;;;;;;3.83;1.88;;;;;;;41.55;8.56;100543.38;5032125;28;20121;-59
2022/06/29 05:08:43;;;;;;;2.42;1.95;;;;;;;41.67;8.24;100511.94;5032064;28;20041;-60
2022/06/29 05:11:08;;;;;;;3.53;1.52;;;;;;;41.86;8.11;100537.88;5030815;28;20029;-61
2022/06/29 05:13:34;;;;;;;2.80;2.00;;;;;;;42.01;7.89;100538.66;5031252;28;20392;-60
2022/06/29 05:16:00;;;;;;;1.95;1.60;;;;;;;42.05;7.99;100539.72;5031485;28;20477;-61
2022/06/29 05:18:26;;;;;;;4.50;1.45;;;;;;;42.75;7.63;100536.44;5030384;28;20025;-61
2022/06/29 05:20:52;;;;;;;2.55;1.45;;;;;;;43.73;6.87;100536.34;5032317;28;20091;-61
2022/06/29 05:23:19;;;;;;;3.33;1.40;;;;;;;43.47;6.37;100533.53;5031564;28;20029;-62
2022/06/29 05:25:44;;;;;;;2.17;1.40;;;;;;;43.84;6.52;100534.03;5031280;28;20038;-60
2022/06/29 05:28:11;;;;;;;1.73;1.50;;;;;;;43.64;6.61;100535.50;5031419;28;20032;-61
2022/06/29 05:30:37;;;;;;;1.60;1.50;;;;;;;44.23;6.32;100542.63;5031874;28;20033;-60
2022/06/29 05:33:03;;;;;;;2.55;1.40;;;;;;;44.97;5.69;100531.25;5030948;28;20026;-59
2022/06/29 05:35:33;;;;;;;3.28;1.60;;;;;;;44.99;5.82;100537.38;5031147;28;20112;-60
2022/06/29 05:37:59;;;;;;;1.60;1.50;;;;;;;44.65;5.89;100533.56;5031175;28;20524;-61
2022/06/29 05:40:24;;;;;;;1.90;1.55;;;;;;;45.10;5.79;100542.66;5031390;28;20037;-60
2022/06/29 05:42:50;;;;;;;2.58;1.73;;;;;;;45.53;5.72;100533.03;5031113;28;20034;-60
2022/06/29 05:45:15;;;;;;;3.97;2.03;;;;;;;45.30;5.74;100536.16;5031127;28;20048;-59
2022/06/29 05:47:41;;;;;;;2.53;2.00;;;;;;;45.34;5.48;100532.69;5030758;28;20116;-61
2022/06/29 05:50:10;;;;;;;2.15;1.70;;;;;;;45.51;5.34;100543.84;5030573;28;20496;-60
2022/06/29 05:52:36;;;;;;;2.65;1.75;;;;;;;45.61;5.45;100536.16;5031055;28;20043;-62
2022/06/29 05:55:05;;;;;;;4.35;1.63;;;;;;;46.27;5.15;100537.34;5029491;28;20350;-62
2022/06/29 05:57:33;;;;;;;4.00;1.88;;;;;;;46.99;4.76;100534.13;5029846;28;20358;-60
2022/06/29 06:00:01;;;;;;;1.90;1.70;;;;;;;47.51;4.68;100526.03;5029805;28;20033;-61
2022/06/29 06:02:28;;;;;;;4.05;1.60;;;;;;;48.07;4.33;100521.56;5028369;28;20449;-59
2022/06/29 06:04:54;;;;;;;3.38;1.63;;;;;;;47.99;4.40;100523.34;5033097;28;20070;-61
2022/06/29 06:07:19;;;;;;;3.75;1.80;;;;;;;47.61;4.50;100512.50;5025825;28;20057;-61
2022/06/29 06:09:45;;;;;;;2.50;1.85;;;;;;;47.77;4.21;100499.25;5030546;28;20033;-60
2022/06/29 06:12:11;;;;;;;1.77;1.45;;;;;;;48.53;3.95;100506.13;5029728;28;20098;-61
2022/06/29 06:14:37;;;;;;;1.67;1.58;;;;;;;48.54;3.90;100504.94;5030361;28;20482;-61
2022/06/29 06:17:03;;;;;;;4.88;2.00;;;;;;;48.28;4.06;100507.09;5029833;28;20121;-65
2022/06/29 06:19:29;;;;;;;2.75;1.90;;;;;;;48.14;4.55;100503.91;5030381;28;20121;-61
2022/06/29 06:21:54;;;;;;;3.08;1.98;;;;;;;48.84;3.79;100510.13;5030310;28;20034;-62
2022/06/29 06:24:19;;;;;;;3.15;1.90;;;;;;;49.33;3.93;100507.97;5030734;28;20065;-60
2022/06/29 06:26:45;;;;;;;2.65;1.73;;;;;;;49.28;3.98;100494.88;5030717;28;20136;-60
2022/06/29 06:29:10;;;;;;;4.47;2.00;;;;;;;49.55;3.75;100504.41;5030089;28;20061;-61
2022/06/29 06:31:36;;;;;;;2.30;2.10;;;;;;;50.06;3.29;100482.63;5029657;28;20061;-61
2022/06/29 06:34:02;;;;;;;2.40;2.20;;;;;;;49.93;3.53;100498.25;5031711;28;20033;-66
2022/06/29 06:36:28;;;;;;;3.28;1.85;;;;;;;50.09;3.75;100487.56;5030844;28;20523;-63
2022/06/29 06:38:53;;;;;;;4.07;2.00;;;;;;;50.90;3.30;100484.81;5030399;28;20159;-65
2022/06/29 06:41:21;;;;;;;2.92;2.10;;;;;;;51.15;2.89;100490.06;5030456;28;20398;-66
2022/06/29 06:43:49;;;;;;;1.85;1.75;;;;;;;50.64;3.02;100497.84;5031182;28;20033;-63
2022/06/29 06:46:14;;;;;;;3.65;1.95;;;;;;;49.79;3.84;100476.81;5043925;28;20128;-63
2022/06/29 06:48:40;;;;;;;4.00;2.00;;;;;;;50.09;3.44;100479.00;5029339;28;20112;-60
2022/06/29 06:51:05;;;;;;;3.60;1.77;;;;;;;50.78;2.92;100482.19;5030310;28;20033;-60
2022/06/29 06:53:31;;;;;;;6.60;1.95;;;;;;;51.18;3.04;100477.91;5029200;28;20430;-62
2022/06/29 06:55:57;;;;;;;2.55;1.85;;;;;;;51.63;2.67;100477.22;5029628;28;20033;-65
2022/06/29 06:58:22;;;;;;;2.75;2.00;;;;;;;52.08;2.47;100480.97;5022797;28;20346;-62
2022/06/29 07:00:48;;;;;;;4.40;1.95;;;;;;;51.48;2.99;100479.91;5027569;28;20029;-64
2022/06/29 07:03:14;;;;;;;3.38;2.05;;;;;;;50.72;2.86;100481.69;5029387;28;20481;-61
2022/06/29 07:05:39;;;;;;;2.63;2.00;;;;;;;50.77;2.79;100463.44;5029515;28;20375;-61
2022/06/29 07:08:05;;;;;;;1.90;1.80;;;;;;;50.75;2.61;100466.69;5029093;28;20040;-61
2022/06/29 07:10:31;;;;;;;4.05;1.80;;;;;;;50.75;2.75;100466.69;5030142;28;20028;-63
2022/06/29 07:12:56;;;;;;;3.13;2.10;;;;;;;50.84;2.50;100481.47;5030115;28;20037;-61
2022/06/29 07:15:22;;;;;;;4.63;2.17;;;;;;;51.01;2.59;100473.59;5029665;28;20036;-60
2022/06/29 07:17:47;;;;;;;1.90;1.65;;;;;;;51.70;2.03;100474.47;5029930;28;20840;-61
2022/06/29 07:20:13;;;;;;;3.90;2.00;;;;;;;52.39;1.47;100461.66;5029160;28;20112;-60
2022/06/29 07:22:38;;;;;;;2.10;1.98;;;;;;;51.06;2.15;100475.28;5030158;28;20325;-60
2022/06/29 07:25:04;;;;;;;3.00;2.17;;;;;;;50.35;2.39;100465.25;5030016;28;20099;-60
2022/06/29 07:27:29;;;;;;;2.30;1.67;;;;;;;50.66;2.64;100469.84;5029554;28;20037;-61
2022/06/29 07:29:55;;;;;;;2.53;2.33;;;;;;;51.21;2.19;100471.41;5030113;28;20442;-62
2022/06/29 07:32:20;;;;;;;3.92;2.08;;;;;;;51.91;1.52;100450.19;5029843;28;20263;-60
2022/06/29 07:34:46;;;;;;;3.00;2.10;;;;;;;52.16;1.70;100469.63;5031960;28;20436;-61
2022/06/29 07:37:12;;;;;;;3.72;2.03;;;;;;;52.25;1.72;100468.06;5032601;28;20544;-64
2022/06/29 07:39:38;;;;;;;5.25;2.30;;;;;;;51.81;2.26;100466.00;5031747;28;20037;-63
2022/06/29 07:42:04;;;;;;;2.70;2.10;;;;;;;52.04;1.78;100459.31;5030274;28;20479;-63
2022/06/29 07:44:30;;;;;;;3.65;2.08;;;;;;;52.04;1.87;100468.69;5030668;28;20066;-65
2022/06/29 07:46:55;;;;;;;2.65;2.55;;;;;;;50.05;2.33;100468.78;5032195;28;20025;-61
2022/06/29 07:49:21;;;;;;;2.17;2.08;;;;;;;49.11;2.90;100460.00;5033203;28;20116;-66
2022/06/29 07:51:47;;;;;;;2.50;2.30;;;;;;;49.85;2.36;100458.22;5032151;28;20330;-65
2022/06/29 07:54:13;;;;;;;2.28;1.70;;;;;;;50.90;2.30;100462.03;5031582;28;20053;-64
2022/06/29 07:56:39;;;;;;;2.22;2.13;;;;;;;51.72;2.06;100466.31;5032882;28;20086;-65
2022/06/29 07:59:04;;;;;;;2.72;2.50;;;;;;;51.76;2.14;100455.75;5033794;28;20482;-65
2022/06/29 08:01:30;;;;;;;2.38;2.17;;;;;;;51.79;1.93;100446.41;5024958;28;20111;-65
2022/06/29 08:03:56;;;;;;;2.70;2.20;;;;;;;52.09;1.76;100444.66;5031893;28;20042;-66
2022/06/29 08:06:23;;;;;;;2.85;2.28;;;;;;;51.49;2.23;100447.31;5032969;28;20474;-66
2022/06/29 08:08:48;;;;;;;2.30;2.05;;;;;;;51.11;2.49;100437.88;5032967;28;20056;-67
2022/06/29 08:11:14;;;;;;;2.20;2.10;;;;;;;50.10;3.09;100437.16;5032047;28;20076;-65
2022/06/29 08:13:39;;;;;;;2.47;2.30;;;;;;;49.46;3.13;100421.31;5032172;28;20026;-61
2022/06/29 08:16:08;;;;;;;2.03;1.92;;;;;;;49.61;2.67;100427.28;5032566;28;20053;-62
2022/06/29 08:18:34;;;;;;;2.40;2.20;;;;;;;49.46;3.24;100403.41;5032010;28;20055;-64
2022/06/29 08:21:02;;;;;;;2.97;2.20;;;;;;;48.59;3.34;100405.22;5009263;28;20454;-63
2022/06/29 08:23:28;;;;;;;2.53;1.90;;;;;;;46.76;3.84;100411.13;5024724;28;20037;-63
2022/06/29 08:25:54;;;;;;;1.85;1.25;;;;;;;44.48;4.74;100410.19;5025779;28;20372;-61
2022/06/29 08:28:19;;;;;;;1.95;1.60;;;;;;;41.59;6.80;100410.38;5029310;28;20214;-60
2022/06/29 08:30:46;;;;;;;2.47;1.60;;;;;;;38.35;8.80;100413.84;5031543;28;20056;-62
2022/06/29 08:33:12;;;;;;;1.77;1.67;;;;;;;35.80;10.13;100391.22;5022300;28;20437;-61
2022/06/29 08:35:37;;;;;;;1.88;1.70;;;;;;;33.81;12.28;100409.34;5024177;28;20096;-62
2022/06/29 08:38:03;;;;;;;3.90;1.55;;;;;;;31.99;13.66;100417.38;5023164;28;20033;-61
2022/06/29 08:40:41;;;;;;;3.67;1.80;;;;;;;30.93;14.41;100425.94;5022670;28;20470;-64
2022/06/29 08:43:08;;;;;;;3.80;1.55;;;;;;;29.41;16.13;100427.31;5020277;28;20072;-61
2022/06/29 08:45:34;;;;;;;3.60;1.75;;;;;;;28.40;17.43;100417.47;5025449;28;20025;-64
2022/06/29 08:48:01;;;;;;;1.75;1.63;;;;;;;28.02;18.06;100412.97;5018108;28;20339;-64
2022/06/29 08:50:27;;;;;;;4.32;1.90;;;;;;;27.59;18.50;100412.66;5019302;28;20048;-65
2022/06/29 08:52:58;;;;;;;4.07;2.03;;;;;;;27.29;18.78;100406.91;5017604;28;20064;-63
2022/06/29 08:55:25;;;;;;;3.78;1.90;;;;;;;27.05;19.24;100404.72;5014901;28;20378;-62
2022/06/29 08:57:52;;;;;;;2.97;1.95;;;;;;;26.74;19.33;100398.03;5012257;28;20030;-61
2022/06/29 09:00:17;;;;;;;2.88;1.90;;;;;;;26.77;20.37;100392.13;5018751;28;20048;-63
2022/06/29 09:02:44;;;;;;;2.42;1.75;;;;;;;26.69;19.41;100400.59;5012183;28;20458;-61
2022/06/29 09:05:09;;;;;;;3.40;1.88;;;;;;;26.46;19.76;100399.19;5015478;28;20109;-62
2022/06/29 09:07:35;;;;;;;3.20;1.90;;;;;;;26.20;20.24;100389.13;5015572;28;20041;-63
2022/06/29 09:10:06;;;;;;;2.33;1.90;;;;;;;26.11;20.44;100402.19;5016125;28;20033;-61
2022/06/29 09:12:33;;;;;;;2.08;1.48;;;;;;;26.05;20.07;100400.31;5023082;28;20061;-61
2022/06/29 09:15:00;;;;;;;2.35;1.92;;;;;;;26.03;19.83;100399.66;5028056;28;20030;-61
2022/06/29 09:17:26;;;;;;;3.95;1.60;;;;;;;25.83;19.23;100394.19;5024024;28;20061;-62
2022/06/29 09:19:56;;;;;;;3.58;2.00;;;;;;;25.67;19.53;100398.19;5030840;28;20068;-61
2022/06/29 09:22:22;;;;;;;1.63;1.52;;;;;;;25.55;19.25;100397.97;5029399;28;20025;-63
2022/06/29 09:24:49;;;;;;;4.28;1.80;;;;;;;25.51;19.89;100390.16;5024866;28;20030;-64
2022/06/29 09:27:15;;;;;;;1.50;1.40;;;;;;;25.55;20.10;100395.22;5016434;28;20033;-63
2022/06/29 09:29:43;;;;;;;3.80;1.80;;;;;;;25.24;20.79;100386.50;5022333;28;20096;-62
2022/06/29 09:32:14;;;;;;;2.63;1.90;;;;;;;25.25;19.53;100382.72;5023897;28;20393;-63
2022/06/29 09:34:41;;;;;;;2.47;1.60;;;;;;;25.22;18.56;100380.38;5025418;28;20052;-64
2022/06/29 09:37:10;;;;;;;2.80;1.67;;;;;;;25.30;20.04;100374.69;5017303;28;20040;-61
2022/06/29 09:39:40;;;;;;;2.67;1.70;;;;;;;25.45;20.25;100382.75;5016694;28;20044;-61
2022/06/29 09:42:10;;;;;;;2.03;1.70;;;;;;;25.61;18.94;100377.94;5038420;28;20386;-62
2022/06/29 09:44:36;;;;;;;3.45;2.05;;;;;;;25.46;18.93;100364.41;5019643;28;20022;-61
2022/06/29 09:47:06;;;;;;;2.72;1.80;;;;;;;25.68;19.09;100394.41;5029145;28;20056;-62
2022/06/29 09:49:33;;;;;;;2.45;1.73;;;;;;;25.48;19.33;100389.72;5030352;28;20040;-62
2022/06/29 09:51:59;;;;;;;1.75;1.65;;;;;;;25.36;19.71;100389.47;5031380;28;20018;-66
2022/06/29 09:54:40;;;;;;;3.78;1.80;;;;;;;25.37;19.75;100389.28;5030742;28;20037;-63
2022/06/29 09:57:10;;;;;;;2.15;1.73;;;;;;;25.29;19.96;100386.72;5026406;28;20100;-63
2022/06/29 10:05:14;;;;;;;1.60;1.50;;;;;;;25.70;19.64;100381.31;5026942;28;19928;-64
2022/06/29 10:07:43;;;;;;;5.00;1.80;;;;;;;25.67;19.13;100368.03;5029447;28;20041;-64
2022/06/29 10:10:11;;;;;;;2.15;1.90;;;;;;;25.74;19.57;100385.31;5029230;28;20030;-64
2022/06/29 10:15:56;;;;;;;3.22;1.52;;;;;;;25.20;19.23;100379.75;5026044;28;20378;-62
2022/06/29 10:19:15;;;;;;;2.75;1.60;;;;;;;25.16;18.67;100390.28;5026381;28;20078;-65
2022/06/29 10:21:41;;;;;;;3.17;1.60;;;;;;;24.91;19.39;100376.31;5006651;28;20029;-63
2022/06/29 10:24:08;;;;;;;2.47;1.70;;;;;;;24.89;19.21;100373.75;5027317;28;20473;-62
2022/06/29 10:26:36;;;;;;;3.53;1.73;;;;;;;24.93;19.47;100360.50;5029717;28;20041;-65
2022/06/29 10:29:08;;;;;;;2.30;1.85;;;;;;;25.12;18.75;100361.59;5030849;28;20064;-62
2022/06/29 10:31:51;;;;;;;2.45;1.73;;;;;;;25.28;18.70;100357.63;5030543;28;20494;-63
2022/06/29 10:34:38;;;;;;;14.63;1.90;;;;;;;25.41;18.87;100364.19;5029780;28;20029;-62
2022/06/29 10:37:07;;;;;;;5.15;1.83;;;;;;;25.31;20.02;100373.66;5029552;28;20037;-64
2022/06/29 10:39:35;;;;;;;2.25;1.90;;;;;;;25.37;19.65;100359.13;5027635;28;20029;-63
2022/06/29 10:45:04;;;;;;;2.75;1.67;;;;;;;25.63;19.47;100351.16;5027232;28;20071;-61
2022/06/29 10:47:31;;;;;;;2.10;1.90;;;;;;;25.31;19.73;100332.53;5026941;28;20033;-62
2022/06/29 10:50:19;;;;;;;4.30;1.95;;;;;;;25.49;19.31;100355.78;5027086;28;20057;-64
2022/06/29 10:52:46;;;;;;;3.67;1.67;;;;;;;25.11;19.11;100331.69;5045677;28;20037;-62
2022/06/29 10:55:12;;;;;;;2.97;2.03;;;;;;;25.02;19.58;100339.25;5030773;28;20120;-61
2022/06/29 10:57:39;;;;;;;2.72;1.95;;;;;;;24.83;19.60;100352.69;5030871;28;20060;-64
2022/06/29 11:00:10;;;;;;;2.00;1.50;;;;;;;24.86;18.94;100345.94;5028972;28;20033;-64
2022/06/29 11:02:37;;;;;;;2.92;1.67;;;;;;;25.00;18.72;100349.56;5029547;28;20037;-63
2022/06/29 11:05:03;;;;;;;3.05;1.77;;;;;;;24.93;19.28;100335.84;5024105;28;20130;-63
2022/06/29 11:12:58;;;;;;;8.95;1.80;;;;;;;25.09;19.21;100315.44;5019067;28;20065;-63
2022/06/29 11:15:47;;;;;;;2.72;1.88;;;;;;;25.36;18.24;100351.97;5033966;28;20033;-64
2022/06/29 11:18:15;;;;;;;4.25;1.80;;;;;;;24.89;18.66;100345.53;5014654;28;20037;-64
2022/06/29 11:20:45;;;;;;;3.65;1.70;;;;;;;24.58;18.70;100325.81;5033229;28;20473;-63
2022/06/29 11:23:16;;;;;;;2.03;1.77;;;;;;;24.42;19.08;100310.59;5034139;28;20051;-61
2022/06/29 11:25:45;;;;;;;2.70;1.75;;;;;;;24.57;18.81;100334.22;5033618;28;20048;-60
2022/06/29 11:28:12;;;;;;;2.50;1.90;;;;;;;24.21;19.08;100282.28;5033037;28;20033;-64
2022/06/29 11:30:37;;;;;;;3.60;1.83;;;;;;;24.51;18.91;100322.19;5033818;28;20038;-63
2022/06/29 11:33:11;;;;;;;1.58;1.48;;;;;;;24.58;18.78;100314.00;5032892;28;20041;-64
2022/06/29 11:35:42;;;;;;;3.78;1.80;;;;;;;24.68;18.32;100317.22;5014286;28;20030;-73
2022/06/29 11:38:08;;;;;;;3.83;1.88;;;;;;;24.59;18.29;100324.75;5019257;28;20036;-63
2022/06/29 11:40:43;;;;;;;2.35;1.77;;;;;;;24.65;18.30;100306.69;5013056;28;20042;-62
2022/06/29 11:43:16;;;;;;;3.20;1.52;;;;;;;24.60;18.82;100303.72;5014584;28;20025;-62
2022/06/29 11:45:52;;;;;;;3.80;1.60;;;;;;;24.67;18.45;100304.56;5032256;28;20034;-61